Time;durP1;ratioP1;P1;durP2;ratioP2;P2;SDS_P1;SDS_P2;PMS_P1;PMS_P2;Temp;Humidity;BMP_temperature;BMP_pressure;BME280_temperature;BME280_humidity;BME280_pressure;Samples;Min_cycle;Max_cycle;Signal;HPM_P1;HPM_P2
2022/09/04 00:02:04;;;;;;;;;;;;;;;23.98;49.42;99795.09;4970898;28;19914;-77
2022/09/04 00:04:40;;;;;;;;;;;;;;;23.95;49.63;99800.22;4970726;28;20012;-77
2022/09/04 00:07:40;;;;;;;;;;;;;;;23.95;49.48;99801.03;4970612;28;19918;-77
2022/09/04 00:10:08;;;;;;;;;;;;;;;23.95;49.55;99798.31;4949421;29;19992;-77
2022/09/04 00:12:40;;;;;;;;;;;;;;;23.95;49.41;99798.31;4966421;28;19914;-77
2022/09/04 00:15:13;;;;;;;;;;;;;;;23.91;49.41;99808.00;4969319;28;19914;-77
2022/09/04 00:17:44;;;;;;;;;;;;;;;23.93;49.85;99822.03;4970422;28;19915;-77
2022/09/04 00:20:27;;;;;;;;;;;;;;;23.96;49.63;99826.09;4970148;28;19922;-77
2022/09/04 00:23:05;;;;;;;;;;;;;;;23.95;49.36;99832.56;4970493;28;19925;-77
2022/09/04 00:25:34;;;;;;;;;;;;;;;23.93;49.26;99832.84;4970520;28;20333;-77
2022/09/04 00:28:22;;;;;;;;;;;;;;;23.91;49.44;99834.97;4970388;28;19925;-77
2022/09/04 00:30:53;;;;;;;;;;;;;;;23.92;49.73;99839.28;4967947;28;19919;-77
2022/09/04 00:33:26;;;;;;;;;;;;;;;23.90;49.80;99837.94;4970464;28;20387;-77
2022/09/04 00:35:54;;;;;;;;;;;;;;;23.92;49.64;99846.56;4969554;28;20387;-77
2022/09/04 00:38:26;;;;;;;;;;;;;;;23.93;50.08;99846.31;4970335;28;19979;-77
2022/09/04 00:41:00;;;;;;;;;;;;;;;23.91;50.29;99856.56;4970320;28;19944;-77
2022/09/04 00:43:28;;;;;;;;;;;;;;;23.86;50.86;99853.81;4970244;28;19963;-77
2022/09/04 00:46:06;;;;;;;;;;;;;;;23.76;51.66;99861.78;4968899;28;19914;-77
2022/09/04 00:48:35;;;;;;;;;;;;;;;23.67;51.84;99861.44;4969987;28;19945;-77
2022/09/04 00:51:16;;;;;;;;;;;;;;;23.59;51.76;99867.31;4969934;28;19914;-77
2022/09/04 00:54:20;;;;;;;;;;;;;;;23.49;51.95;99864.47;4970011;28;19913;-77
2022/09/04 00:57:04;;;;;;;;;;;;;;;23.50;51.62;99871.50;4932632;29;19922;-77
2022/09/04 00:59:47;;;;;;;;;;;;;;;23.46;52.53;99859.59;4949106;29;20013;-77
2022/09/04 01:02:21;;;;;;;;;;;;;;;23.42;52.40;99863.88;4964254;28;20310;-77
2022/09/04 01:04:57;;;;;;;;;;;;;;;23.36;52.22;99865.69;4970269;28;19983;-77
2022/09/04 01:07:36;;;;;;;;;;;;;;;23.34;52.76;99864.31;4968620;28;19919;-77
2022/09/04 01:10:05;;;;;;;;;;;;;;;23.34;51.97;99867.84;4970165;28;19914;-77
2022/09/04 01:12:44;;;;;;;;;;;;;;;23.33;52.67;99868.91;4969935;28;19921;-77
2022/09/04 01:15:33;;;;;;;;;;;;;;;23.33;52.27;99873.47;4969961;28;19914;-77
2022/09/04 01:18:13;;;;;;;;;;;;;;;23.30;53.53;99871.28;4969920;28;19915;-77
2022/09/04 01:20:54;;;;;;;;;;;;;;;23.30;52.59;99879.38;4969874;28;20295;-77
2022/09/04 01:23:42;;;;;;;;;;;;;;;23.33;53.09;99873.47;4969765;28;19921;-77
2022/09/04 01:26:26;;;;;;;;;;;;;;;23.34;52.81;99877.81;4966679;28;19926;-77
2022/09/04 01:29:00;;;;;;;;;;;;;;;23.36;52.70;99884.56;4969857;28;19925;-77
2022/09/04 01:31:30;;;;;;;;;;;;;;;23.34;52.49;99884.00;4969733;28;19945;-77
2022/09/04 01:34:08;;;;;;;;;;;;;;;23.35;52.01;99891.03;4969443;28;19918;-77
2022/09/04 01:36:34;;;;;;;;;;;;;;;23.37;51.96;99894.28;4969465;28;19914;-77
2022/09/04 01:39:00;;;;;;;;;;;;;;;23.37;51.95;99893.47;4969564;28;19920;-77
2022/09/04 01:41:38;;;;;;;;;;;;;;;23.31;52.16;99889.09;4968719;28;19915;-77
2022/09/04 01:44:05;;;;;;;;;;;;;;;23.15;52.60;99874.63;4969612;28;19914;-77
2022/09/04 01:46:52;;;;;;;;;;;;;;;23.09;52.04;99881.84;4970150;28;20374;-77
2022/09/04 01:49:24;;;;;;;;;;;;;;;23.06;52.24;99890.44;4972629;28;20494;-77
2022/09/04 01:52:04;;;;;;;;;;;;;;;22.89;52.98;99878.88;4972643;28;19914;-77
2022/09/04 01:54:52;;;;;;;;;;;;;;;22.82;53.48;99879.06;4972700;28;19914;-77
2022/09/04 01:57:30;;;;;;;;;;;;;;;22.85;53.22;99885.00;4972713;28;20436;-76
2022/09/04 01:59:58;;;;;;;;;;;;;;;22.87;53.13;99889.06;4972661;28;19914;-76
2022/09/04 02:02:24;;;;;;;;;;;;;;;22.94;53.34;99888.91;4972693;28;19914;-76
2022/09/04 02:04:49;;;;;;;;;;;;;;;22.93;52.80;99881.88;4971442;28;20319;-76
2022/09/04 02:07:20;;;;;;;;;;;;;;;22.89;53.38;99884.25;4972384;28;19918;-76
2022/09/04 02:09:57;;;;;;;;;;;;;;;22.88;53.29;99882.63;4972529;28;19971;-76
2022/09/04 02:12:29;;;;;;;;;;;;;;;22.88;53.11;99885.31;4972555;28;19914;-76
2022/09/04 02:15:02;;;;;;;;;;;;;;;22.90;53.77;99882.38;4971128;28;19914;-77
2022/09/04 02:17:39;;;;;;;;;;;;;;;22.93;53.34;99881.88;4971059;28;20471;-77
2022/09/04 02:20:08;;;;;;;;;;;;;;;22.95;53.88;99883.25;4972163;28;19929;-77
2022/09/04 02:22:38;;;;;;;;;;;;;;;22.96;53.34;99884.06;4972148;28;19953;-77
2022/09/04 02:25:04;;;;;;;;;;;;;;;22.99;53.22;99878.19;4972112;28;19914;-77
2022/09/04 02:27:29;;;;;;;;;;;;;;;22.97;52.86;99875.75;4972042;28;19918;-77
2022/09/04 02:30:07;;;;;;;;;;;;;;;22.96;53.17;99876.81;4972155;28;20387;-77
2022/09/04 02:32:38;;;;;;;;;;;;;;;23.00;52.72;99877.94;4972369;28;19968;-77
2022/09/04 02:35:27;;;;;;;;;;;;;;;22.99;52.65;99870.91;4972240;28;19921;-77
2022/09/04 02:38:07;;;;;;;;;;;;;;;22.98;52.84;99879.25;4969610;28;19918;-77
2022/09/04 02:40:47;;;;;;;;;;;;;;;22.92;53.15;99882.94;4972080;28;19950;-76
2022/09/04 02:43:15;;;;;;;;;;;;;;;22.90;52.99;99877.00;4972092;28;19914;-77
2022/09/04 02:45:49;;;;;;;;;;;;;;;22.92;53.09;99870.28;4972052;28;19921;-76
2022/09/04 02:48:18;;;;;;;;;;;;;;;22.95;52.49;99877.06;4971849;28;19950;-76
2022/09/04 02:51:01;;;;;;;;;;;;;;;22.97;53.00;99872.22;4971703;28;19918;-77
2022/09/04 02:53:45;;;;;;;;;;;;;;;22.99;53.00;99868.22;4971947;28;19923;-77
2022/09/04 02:56:16;;;;;;;;;;;;;;;22.95;52.95;99866.28;4971802;28;20419;-77
2022/09/04 02:59:02;;;;;;;;;;;;;;;22.90;52.86;99874.31;4971232;28;20008;-77
2022/09/04 03:01:41;;;;;;;;;;;;;;;22.87;53.21;99867.53;4971822;28;19914;-77
2022/09/04 03:04:07;;;;;;;;;;;;;;;22.88;52.98;99871.84;4971877;28;19921;-77
2022/09/04 03:06:41;;;;;;;;;;;;;;;22.92;52.58;99882.94;4970333;28;19918;-77
2022/09/04 03:09:13;;;;;;;;;;;;;;;22.92;52.88;99882.94;4971402;28;19914;-77
2022/09/04 03:11:42;;;;;;;;;;;;;;;22.88;52.78;99889.91;4970194;28;19911;-77
2022/09/04 03:14:23;;;;;;;;;;;;;;;22.89;52.76;99891.53;4971550;28;19928;-77
2022/09/04 03:17:05;;;;;;;;;;;;;;;22.89;52.70;99892.34;4971470;28;19963;-76
2022/09/04 03:19:33;;;;;;;;;;;;;;;22.88;53.23;99887.19;4971180;28;19922;-77
2022/09/04 03:22:02;;;;;;;;;;;;;;;22.89;53.03;99891.53;4969985;28;19914;-77
2022/09/04 03:24:28;;;;;;;;;;;;;;;22.91;52.84;99894.78;4971263;28;19914;-77
2022/09/04 03:27:12;;;;;;;;;;;;;;;22.80;53.06;99888.44;4970193;28;19925;-77
2022/09/04 03:29:56;;;;;;;;;;;;;;;22.81;53.17;99890.06;4971208;28;19922;-76
2022/09/04 03:32:42;;;;;;;;;;;;;;;22.80;53.64;99893.84;4971095;28;19918;-77
2022/09/04 03:35:19;;;;;;;;;;;;;;;22.79;53.14;99900.25;4971187;28;19920;-77
2022/09/04 03:37:44;;;;;;;;;;;;;;;22.79;53.17;99895.69;4969962;28;19985;-77
2022/09/04 03:40:28;;;;;;;;;;;;;;;22.82;53.27;99903.28;4971058;28;19917;-77
2022/09/04 03:42:56;;;;;;;;;;;;;;;22.87;53.02;99907.13;4971074;28;20016;-77
2022/09/04 03:45:27;;;;;;;;;;;;;;;22.89;53.30;99913.06;4971174;28;19914;-77
2022/09/04 03:48:00;;;;;;;;;;;;;;;22.87;53.58;99912.50;4971016;28;19980;-77
2022/09/04 03:50:38;;;;;;;;;;;;;;;22.78;54.19;99918.28;4970829;28;19944;-77
2022/09/04 03:53:06;;;;;;;;;;;;;;;22.75;53.46;99909.88;4970886;28;19911;-77
2022/09/04 03:55:40;;;;;;;;;;;;;;;22.77;53.27;99915.84;4969520;28;20466;-77
2022/09/04 03:58:21;;;;;;;;;;;;;;;22.77;53.53;99926.59;4970914;28;19921;-77
2022/09/04 04:01:04;;;;;;;;;;;;;;;22.75;54.09;99923.34;4970680;28;20322;-76
2022/09/04 04:03:56;;;;;;;;;;;;;;;22.74;53.76;99927.91;4970782;28;19914;-76
2022/09/04 04:06:34;;;;;;;;;;;;;;;22.75;53.40;99921.47;4969381;28;19918;-77
2022/09/04 04:09:03;;;;;;;;;;;;;;;22.70;54.58;99932.16;4969362;28;19949;-77
2022/09/04 04:11:37;;;;;;;;;;;;;;;22.66;54.55;99924.84;4968403;28;20452;-77
2022/09/04 04:14:21;;;;;;;;;;;;;;;22.65;54.34;99928.59;4970741;28;19964;-77
2022/09/04 04:16:46;;;;;;;;;;;;;;;22.67;54.20;99929.97;4970856;28;19914;-77
2022/09/04 04:19:23;;;;;;;;;;;;;;;22.63;54.53;99922.63;4970410;28;19929;-77
2022/09/04 04:22:11;;;;;;;;;;;;;;;22.61;55.27;99930.16;4969312;28;20414;-77
2022/09/04 04:24:46;;;;;;;;;;;;;;;22.57;55.14;99932.53;4970588;28;19921;-77
2022/09/04 04:27:35;;;;;;;;;;;;;;;22.61;53.76;99930.16;4970296;28;20311;-77
2022/09/04 04:30:03;;;;;;;;;;;;;;;22.59;55.00;99934.97;4969110;28;19914;-77
2022/09/04 04:32:47;;;;;;;;;;;;;;;22.55;55.51;99940.03;4970206;28;19953;-77
2022/09/04 04:35:31;;;;;;;;;;;;;;;22.51;55.53;99939.72;4970248;28;20291;-77
2022/09/04 04:38:11;;;;;;;;;;;;;;;22.53;55.07;99947.53;4970385;28;19914;-77
2022/09/04 04:40:55;;;;;;;;;;;;;;;22.52;55.00;99946.72;4969198;28;19918;-77
2022/09/04 04:43:28;;;;;;;;;;;;;;;22.54;54.75;99953.72;4970114;28;19914;-77
2022/09/04 04:45:58;;;;;;;;;;;;;;;22.49;55.09;99949.91;4968763;28;19950;-77
2022/09/04 04:48:39;;;;;;;;;;;;;;;22.52;55.04;99962.88;4969076;28;20395;-77
2022/09/04 04:51:23;;;;;;;;;;;;;;;22.49;55.77;99960.66;4970344;28;19914;-77
2022/09/04 04:53:54;;;;;;;;;;;;;;;22.53;55.23;99979.81;4968781;28;19914;-77
2022/09/04 04:56:44;;;;;;;;;;;;;;;22.54;55.79;99976.06;4968587;28;19965;-77
2022/09/04 04:59:26;;;;;;;;;;;;;;;22.48;55.91;99977.06;4970118;28;19925;-77
2022/09/04 05:02:30;;;;;;;;;;;;;;;22.51;55.27;99988.16;4970058;28;20291;-77
2022/09/04 05:05:12;;;;;;;;;;;;;;;22.59;55.48;99989.59;4948745;29;19993;-77
2022/09/04 05:07:37;;;;;;;;;;;;;;;22.64;53.94;99988.88;4948651;29;20397;-77
2022/09/04 05:10:11;;;;;;;;;;;;;;;22.62;55.35;99989.13;4960695;28;19914;-77
2022/09/04 05:12:37;;;;;;;;;;;;;;;22.61;55.12;99994.75;4970093;28;19980;-77
2022/09/04 05:15:09;;;;;;;;;;;;;;;22.60;55.93;99995.81;4968718;28;20402;-77
2022/09/04 05:17:44;;;;;;;;;;;;;;;22.61;55.12;99995.56;4970255;28;19921;-77
2022/09/04 05:20:15;;;;;;;;;;;;;;;22.64;54.92;99997.75;4968430;28;20387;-76
2022/09/04 05:22:48;;;;;;;;;;;;;;;22.67;55.60;99999.16;4970992;28;19921;-76
2022/09/04 05:25:35;;;;;;;;;;;;;;;22.66;56.00;99997.50;4973254;28;19937;-77
2022/09/04 05:28:00;;;;;;;;;;;;;;;22.67;55.16;99997.28;4973011;28;19958;-76
2022/09/04 05:30:38;;;;;;;;;;;;;;;22.69;55.61;100002.41;4971732;28;19961;-77
2022/09/04 05:33:10;;;;;;;;;;;;;;;22.70;54.60;100004.84;4973067;28;19914;-76
2022/09/04 05:35:38;;;;;;;;;;;;;;;22.73;54.89;100012.44;4973008;28;20525;-77
2022/09/04 05:38:09;;;;;;;;;;;;;;;22.78;54.99;100017.91;4972921;28;19921;-77
2022/09/04 05:40:53;;;;;;;;;;;;;;;22.85;54.81;100020.44;4971747;28;19921;-77
2022/09/04 05:43:18;;;;;;;;;;;;;;;22.85;54.83;100020.44;4972144;28;19941;-77
2022/09/04 05:46:02;;;;;;;;;;;;;;;22.89;54.05;100018.06;4972922;28;20391;-77
2022/09/04 05:48:45;;;;;;;;;;;;;;;22.95;54.06;100027.84;4972879;28;19924;-77
2022/09/04 05:51:29;;;;;;;;;;;;;;;22.97;53.99;100036.50;4972816;28;20005;-76
2022/09/04 05:53:54;;;;;;;;;;;;;;;23.00;53.16;100034.13;4972986;28;19915;-76
2022/09/04 05:56:31;;;;;;;;;;;;;;;23.02;53.22;100031.19;4971568;28;19984;-77
2022/09/04 05:59:00;;;;;;;;;;;;;;;23.04;53.29;100039.88;4972775;28;19914;-77
2022/09/04 06:01:28;;;;;;;;;;;;;;;23.11;52.90;100046.72;4972726;28;19921;-77
2022/09/04 06:03:53;;;;;;;;;;;;;;;23.16;52.58;100054.06;4971330;28;20032;-77
2022/09/04 06:06:29;;;;;;;;;;;;;;;23.21;52.35;100046.03;4972237;28;20012;-77
2022/09/04 06:08:57;;;;;;;;;;;;;;;23.24;52.43;100053.63;4972234;28;19914;-77
2022/09/04 06:11:41;;;;;;;;;;;;;;;23.30;52.15;100049.94;4972408;28;19964;-76
2022/09/04 06:14:06;;;;;;;;;;;;;;;23.34;52.29;100053.75;4972764;28;19907;-76
2022/09/04 06:16:34;;;;;;;;;;;;;;;23.42;52.18;100049.81;4971294;28;19914;-76
2022/09/04 06:19:00;;;;;;;;;;;;;;;23.52;52.14;100057.22;4972394;28;19929;-77
2022/09/04 06:21:25;;;;;;;;;;;;;;;23.56;51.91;100052.97;4972443;28;20001;-77
2022/09/04 06:23:53;;;;;;;;;;;;;;;23.60;51.92;100052.22;4971048;28;19960;-76
2022/09/04 06:26:37;;;;;;;;;;;;;;;23.64;51.62;100047.97;4972271;28;19922;-76
2022/09/04 06:29:17;;;;;;;;;;;;;;;23.69;51.66;100056.13;4972211;28;19914;-77
2022/09/04 06:32:03;;;;;;;;;;;;;;;23.65;51.67;100049.59;4972272;28;20377;-76
2022/09/04 06:34:34;;;;;;;;;;;;;;;23.66;51.71;100053.09;4969996;28;20342;-77
2022/09/04 06:37:14;;;;;;;;;;;;;;;23.71;51.75;100055.88;4972128;28;19920;-77
2022/09/04 06:39:58;;;;;;;;;;;;;;;23.82;51.42;100059.53;4972027;28;19925;-77
2022/09/04 06:42:26;;;;;;;;;;;;;;;23.90;51.23;100053.69;4972006;28;19925;-76
2022/09/04 06:45:10;;;;;;;;;;;;;;;23.96;50.80;100053.47;4971789;28;19907;-77
2022/09/04 06:47:58;;;;;;;;;;;;;;;23.96;50.90;100056.19;4971703;28;19918;-77
2022/09/04 06:50:27;;;;;;;;;;;;;;;23.97;50.60;100052.41;4972129;28;20322;-77
2022/09/04 06:53:17;;;;;;;;;;;;;;;24.01;50.49;100050.84;4971908;28;19919;-77
2022/09/04 06:55:43;;;;;;;;;;;;;;;24.01;50.71;100048.16;4971958;28;19957;-77
2022/09/04 06:58:08;;;;;;;;;;;;;;;24.12;50.74;100042.84;4970508;28;20376;-77
2022/09/04 07:00:39;;;;;;;;;;;;;;;24.15;50.15;100040.47;4971526;28;20021;-77
2022/09/04 07:03:07;;;;;;;;;;;;;;;24.13;50.40;100036.38;4971603;28;20272;-77
2022/09/04 07:05:35;;;;;;;;;;;;;;;24.17;49.88;100034.81;4970420;28;19914;-77
2022/09/04 07:08:13;;;;;;;;;;;;;;;24.28;49.83;100047.34;4970269;28;19918;-76
2022/09/04 07:10:38;;;;;;;;;;;;;;;24.40;49.80;100059.63;4971674;28;20005;-77
2022/09/04 07:13:27;;;;;;;;;;;;;;;24.42;49.29;100045.06;4971788;28;20101;-77
2022/09/04 07:16:12;;;;;;;;;;;;;;;24.48;49.25;100054.81;4971641;28;19921;-76
2022/09/04 07:18:56;;;;;;;;;;;;;;;24.58;48.75;100061.16;4970112;28;19922;-76
2022/09/04 07:21:22;;;;;;;;;;;;;;;24.56;48.33;100055.19;4971462;28;20520;-77
2022/09/04 07:23:53;;;;;;;;;;;;;;;24.52;48.70;100047.84;4971386;28;19914;-77
2022/09/04 07:26:37;;;;;;;;;;;;;;;24.51;48.38;100049.72;4971281;28;19929;-76
2022/09/04 07:29:20;;;;;;;;;;;;;;;24.52;48.69;100045.94;4971350;28;20295;-77
2022/09/04 07:31:54;;;;;;;;;;;;;;;24.59;48.40;100037.66;4971292;28;20405;-77
2022/09/04 07:34:19;;;;;;;;;;;;;;;24.65;47.30;100047.44;4970026;28;19983;-77
2022/09/04 07:36:44;;;;;;;;;;;;;;;24.76;48.23;100056.44;4969951;28;20378;-77
2022/09/04 07:39:22;;;;;;;;;;;;;;;24.77;47.88;100044.56;4971212;28;20352;-77
2022/09/04 07:41:59;;;;;;;;;;;;;;;24.74;48.30;100042.38;4971070;28;19917;-77
2022/09/04 07:44:37;;;;;;;;;;;;;;;24.82;47.63;100041.88;4970886;28;19937;-77
2022/09/04 07:47:13;;;;;;;;;;;;;;;24.90;47.80;100039.50;4970997;28;19918;-77
2022/09/04 07:49:51;;;;;;;;;;;;;;;24.93;47.48;100038.19;4971072;28;20067;-76
2022/09/04 07:52:38;;;;;;;;;;;;;;;24.97;47.28;100042.00;4969674;28;20390;-76
2022/09/04 07:55:06;;;;;;;;;;;;;;;25.09;47.05;100039.13;4970815;28;19918;-76
2022/09/04 07:57:50;;;;;;;;;;;;;;;25.25;46.57;100022.72;4970757;28;19914;-76
2022/09/04 08:00:21;;;;;;;;;;;;;;;25.42;47.17;100017.16;4970834;28;20052;-77
2022/09/04 08:02:46;;;;;;;;;;;;;;;25.53;47.06;100010.72;4970941;28;19915;-77
2022/09/04 08:05:27;;;;;;;;;;;;;;;25.53;46.17;100015.31;4970914;28;19925;-76
2022/09/04 08:08:03;;;;;;;;;;;;;;;25.63;45.84;100015.34;4970630;28;20379;-77
2022/09/04 08:10:51;;;;;;;;;;;;;;;25.77;46.40;100013.78;4969517;28;19918;-77
2022/09/04 08:13:21;;;;;;;;;;;;;;;25.94;45.80;100017.06;4970600;28;19945;-77
2022/09/04 08:15:56;;;;;;;;;;;;;;;26.00;45.88;100011.66;4970740;28;19922;-76
2022/09/04 08:18:40;;;;;;;;;;;;;;;25.97;45.34;100016.53;4969223;28;19918;-77
2022/09/04 08:21:15;;;;;;;;;;;;;;;25.95;44.99;100012.47;4970691;28;20001;-77
2022/09/04 08:23:57;;;;;;;;;;;;;;;25.96;44.20;100016.81;4970402;28;19921;-77
2022/09/04 08:26:39;;;;;;;;;;;;;;;25.94;44.92;100017.06;4970290;28;19918;-76
2022/09/04 08:29:07;;;;;;;;;;;;;;;25.85;43.49;100023.28;4970412;28;19914;-77
2022/09/04 08:31:47;;;;;;;;;;;;;;;26.03;44.10;100024.69;4970438;28;19954;-77
2022/09/04 08:34:24;;;;;;;;;;;;;;;26.16;43.60;100029.59;4970441;28;19915;-77
2022/09/04 08:36:55;;;;;;;;;;;;;;;26.05;44.44;100022.53;4970352;28;20365;-77
2022/09/04 08:39:29;;;;;;;;;;;;;;;26.13;44.51;100028.22;4969153;28;20326;-77
2022/09/04 08:42:13;;;;;;;;;;;;;;;26.16;44.24;100010.63;4970354;28;19949;-76
2022/09/04 08:44:54;;;;;;;;;;;;;;;26.37;44.03;100012.31;4970332;28;19918;-77
2022/09/04 08:47:52;;;;;;;;;;;;;;;26.72;43.01;100007.94;4968993;28;20005;-76
2022/09/04 08:50:22;;;;;;;;;;;;;;;26.95;42.05;100003.88;4970329;28;19914;-76
2022/09/04 08:53:26;;;;;;;;;;;;;;;27.11;42.54;100014.44;4970760;28;19920;-77
2022/09/04 08:55:54;;;;;;;;;;;;;;;27.59;42.03;100022.97;4933262;29;20377;-77
2022/09/04 08:58:22;;;;;;;;;;;;;;;27.89;40.96;100019.28;4952113;29;19997;-77
2022/09/04 09:01:06;;;;;;;;;;;;;;;27.98;40.71;100024.94;4952578;28;19954;-77
2022/09/04 09:03:51;;;;;;;;;;;;;;;28.20;40.77;100016.38;4972221;28;20001;-77
2022/09/04 09:06:22;;;;;;;;;;;;;;;28.35;40.97;100028.00;4973547;28;19983;-77
2022/09/04 09:09:06;;;;;;;;;;;;;;;28.06;40.65;100018.91;4973419;28;19937;-77
2022/09/04 09:11:34;;;;;;;;;;;;;;;28.11;41.24;100016.16;4973560;28;19914;-77
2022/09/04 09:14:05;;;;;;;;;;;;;;;28.40;38.75;100011.66;4972150;28;19964;-77
2022/09/04 09:16:30;;;;;;;;;;;;;;;28.55;39.85;100010.72;4973431;28;19980;-77
2022/09/04 09:19:04;;;;;;;;;;;;;;;28.56;38.26;100016.97;4973145;28;19922;-77
2022/09/04 09:21:48;;;;;;;;;;;;;;;28.56;40.25;100006.91;4973238;28;19921;-77
2022/09/04 09:24:32;;;;;;;;;;;;;;;28.37;38.53;100005.97;4973240;28;20408;-77
2022/09/04 09:27:26;;;;;;;;;;;;;;;28.13;39.55;100013.97;4972994;28;19919;-77
2022/09/04 09:30:00;;;;;;;;;;;;;;;27.97;40.22;100009.75;4968536;28;19914;-77
2022/09/04 09:32:49;;;;;;;;;;;;;;;28.03;38.75;100011.34;4973198;28;19967;-77
2022/09/04 09:35:14;;;;;;;;;;;;;;;28.07;40.41;100015.91;4970286;28;19914;-77
2022/09/04 09:37:59;;;;;;;;;;;;;;;28.15;39.76;100009.06;4973119;28;19921;-77
2022/09/04 09:40:38;;;;;;;;;;;;;;;27.98;39.75;100016.78;4972903;28;19966;-76
2022/09/04 09:43:23;;;;;;;;;;;;;;;27.98;40.88;100022.22;4972769;28;19921;-77
2022/09/04 09:45:54;;;;;;;;;;;;;;;28.08;39.92;100022.16;4971640;28;20425;-77
2022/09/04 09:48:22;;;;;;;;;;;;;;;28.10;40.04;100014.53;4973082;28;19925;-77
2022/09/04 09:50:47;;;;;;;;;;;;;;;28.00;40.62;100017.31;4972895;28;19914;-77
2022/09/04 09:53:37;;;;;;;;;;;;;;;27.95;39.91;100017.34;4970034;28;20021;-77
2022/09/04 09:56:09;;;;;;;;;;;;;;;28.16;39.39;100016.94;4972683;28;19910;-77
2022/09/04 09:58:43;;;;;;;;;;;;;;;28.55;39.86;100020.75;4972646;28;19957;-77
2022/09/04 10:01:30;;;;;;;;;;;;;;;28.71;38.46;100033.94;4972586;28;19918;-77
2022/09/04 10:04:14;;;;;;;;;;;;;;;28.59;40.17;100035.41;4972986;28;19910;-77
2022/09/04 10:06:59;;;;;;;;;;;;;;;28.61;38.55;100025.88;4972509;28;19918;-77
2022/09/04 10:09:36;;;;;;;;;;;;;;;29.04;39.00;100020.63;4971116;28;20044;-77
2022/09/04 10:12:18;;;;;;;;;;;;;;;29.24;38.20;100022.28;4972405;28;19946;-77
2022/09/04 10:15:02;;;;;;;;;;;;;;;29.29;40.00;100022.22;4972778;28;19918;-77
2022/09/04 10:17:49;;;;;;;;;;;;;;;29.27;39.81;100027.97;4971244;28;19914;-76
2022/09/04 10:20:23;;;;;;;;;;;;;;;29.19;37.08;100016.91;4972325;28;19934;-77
2022/09/04 10:23:06;;;;;;;;;;;;;;;28.94;37.94;100018.78;4972340;28;19947;-76
2022/09/04 10:25:40;;;;;;;;;;;;;;;28.65;39.03;100016.06;4972211;28;20441;-77
2022/09/04 10:28:15;;;;;;;;;;;;;;;28.50;39.28;100001.78;4972369;28;19980;-77
2022/09/04 10:30:43;;;;;;;;;;;;;;;28.64;39.13;99998.13;4970927;28;19968;-77
2022/09/04 10:33:18;;;;;;;;;;;;;;;29.19;37.46;100003.31;4970981;28;19925;-76
2022/09/04 10:36:03;;;;;;;;;;;;;;;29.64;36.44;100005.50;4972267;28;19914;-77
2022/09/04 10:38:33;;;;;;;;;;;;;;;30.10;36.34;100014.97;4972309;28;19921;-77
2022/09/04 10:41:17;;;;;;;;;;;;;;;30.24;35.66;100002.22;4971982;28;20414;-77
2022/09/04 10:43:51;;;;;;;;;;;;;;;29.76;36.99;100010.53;4971940;28;19969;-77
2022/09/04 10:46:24;;;;;;;;;;;;;;;29.37;38.35;100003.38;4970901;28;20023;-77
2022/09/04 10:49:10;;;;;;;;;;;;;;;29.05;38.29;99998.56;4971843;28;19914;-77
2022/09/04 10:51:38;;;;;;;;;;;;;;;28.68;38.05;99998.38;4971930;28;19921;-77
2022/09/04 10:54:18;;;;;;;;;;;;;;;28.72;38.93;100000.22;4971862;28;19920;-76
2022/09/04 10:56:44;;;;;;;;;;;;;;;28.64;38.72;100000.03;4970585;28;19921;-76
2022/09/04 10:59:26;;;;;;;;;;;;;;;29.10;38.09;100005.88;4970581;28;20377;-76
2022/09/04 11:01:52;;;;;;;;;;;;;;;29.81;36.09;100009.66;4971799;28;19914;-77
2022/09/04 11:04:17;;;;;;;;;;;;;;;30.25;36.59;100010.09;4970375;28;20463;-77
2022/09/04 11:06:51;;;;;;;;;;;;;;;30.62;35.79;100005.72;4971345;28;19962;-77
2022/09/04 11:09:29;;;;;;;;;;;;;;;31.10;35.32;100005.38;4971484;28;19914;-76
2022/09/04 11:12:12;;;;;;;;;;;;;;;31.45;33.81;100001.97;4971598;28;19918;-77
2022/09/04 11:14:49;;;;;;;;;;;;;;;31.59;34.72;99997.28;4971646;28;19914;-77
2022/09/04 11:17:17;;;;;;;;;;;;;;;31.75;33.16;99994.25;4971627;28;19918;-76
2022/09/04 11:19:55;;;;;;;;;;;;;;;31.63;34.17;99996.69;4969586;28;20344;-77
2022/09/04 11:22:39;;;;;;;;;;;;;;;31.21;35.24;100001.34;4970110;28;19914;-77
2022/09/04 11:25:23;;;;;;;;;;;;;;;30.77;35.45;100007.34;4969993;28;19914;-77
2022/09/04 11:27:57;;;;;;;;;;;;;;;30.53;36.35;99988.41;4971157;28;19944;-77
2022/09/04 11:30:28;;;;;;;;;;;;;;;30.64;35.38;99979.78;4971223;28;20379;-77
2022/09/04 11:33:09;;;;;;;;;;;;;;;30.93;34.57;99963.13;4970074;28;19973;-76
2022/09/04 11:35:41;;;;;;;;;;;;;;;31.32;35.11;99966.50;4971317;28;19921;-76
2022/09/04 11:38:07;;;;;;;;;;;;;;;31.69;33.98;99947.13;4971320;28;19915;-76
2022/09/04 11:40:54;;;;;;;;;;;;;;;31.85;33.97;99939.41;4971051;28;19914;-76
2022/09/04 11:43:22;;;;;;;;;;;;;;;31.99;34.46;99947.56;4971098;28;19963;-76
2022/09/04 11:45:48;;;;;;;;;;;;;;;31.89;34.09;99945.84;4969868;28;19963;-77
2022/09/04 11:48:16;;;;;;;;;;;;;;;31.85;34.81;99939.41;4969864;28;19919;-77
2022/09/04 11:50:58;;;;;;;;;;;;;;;31.49;33.57;99942.94;4971418;28;20330;-76
2022/09/04 11:53:41;;;;;;;;;;;;;;;30.93;33.66;99954.16;4971083;28;19922;-77
2022/09/04 11:56:25;;;;;;;;;;;;;;;30.50;34.99;99956.31;4969568;28;19914;-76
2022/09/04 11:59:10;;;;;;;;;;;;;;;30.71;35.69;99943.94;4969871;28;20305;-77
2022/09/04 12:01:41;;;;;;;;;;;;;;;31.04;35.44;99925.56;4969443;28;19906;-77
2022/09/04 12:04:07;;;;;;;;;;;;;;;31.13;34.70;99923.72;4969488;28;19921;-77
2022/09/04 12:06:51;;;;;;;;;;;;;;;30.90;34.90;99930.22;4969430;28;19925;-77
2022/09/04 12:09:25;;;;;;;;;;;;;;;30.60;35.07;99932.41;4970584;28;19915;-77
2022/09/04 12:11:55;;;;;;;;;;;;;;;30.74;35.78;99937.88;4969479;28;19997;-77
2022/09/04 12:14:20;;;;;;;;;;;;;;;30.78;33.82;99917.09;4970669;28;19915;-77
2022/09/04 12:16:45;;;;;;;;;;;;;;;30.86;33.90;99918.31;4970565;28;20413;-77
2022/09/04 12:19:25;;;;;;;;;;;;;;;30.91;34.54;99915.47;4970336;28;20012;-77
2022/09/04 12:21:54;;;;;;;;;;;;;;;31.03;33.75;99906.78;4970461;28;19914;-77
2022/09/04 12:24:19;;;;;;;;;;;;;;;31.22;33.61;99907.50;4970557;28;19914;-77
2022/09/04 12:27:03;;;;;;;;;;;;;;;31.31;33.52;99904.88;4970540;28;19926;-77
2022/09/04 12:29:43;;;;;;;;;;;;;;;31.24;33.75;99908.00;4970574;28;19918;-77
2022/09/04 12:32:28;;;;;;;;;;;;;;;31.22;34.18;99911.06;4968349;28;19997;-77
2022/09/04 12:35:12;;;;;;;;;;;;;;;31.27;33.60;99893.75;4969201;28;19914;-77
2022/09/04 12:37:42;;;;;;;;;;;;;;;31.45;34.18;99887.34;4970367;28;19914;-77
2022/09/04 12:40:18;;;;;;;;;;;;;;;31.66;34.25;99906.78;4970223;28;19968;-77
2022/09/04 12:43:02;;;;;;;;;;;;;;;31.44;33.84;99906.75;4970116;28;19915;-77
2022/09/04 12:45:46;;;;;;;;;;;;;;;30.97;33.10;99904.16;4970231;28;20295;-77
2022/09/04 12:48:26;;;;;;;;;;;;;;;30.58;34.63;99907.34;4968736;28;19925;-77
2022/09/04 12:50:51;;;;;;;;;;;;;;;30.32;34.81;99906.19;4968823;28;20421;-77
2022/09/04 12:53:26;;;;;;;;;;;;;;;30.12;33.79;99910.06;4970093;28;19953;-77
2022/09/04 12:56:04;;;;;;;;;;;;;;;29.93;34.85;99898.38;4970158;28;19920;-77
2022/09/04 12:58:49;;;;;;;;;;;;;;;29.76;35.04;99903.56;4970328;28;19914;-77
2022/09/04 13:01:17;;;;;;;;;;;;;;;29.72;35.48;99901.41;4970217;28;20448;-77
2022/09/04 13:03:54;;;;;;;;;;;;;;;29.71;35.50;99905.22;4970065;28;19914;-76
2022/09/04 13:06:26;;;;;;;;;;;;;;;29.59;35.54;99913.03;4969771;28;20311;-77
2022/09/04 13:09:09;;;;;;;;;;;;;;;29.43;35.30;99908.91;4969824;28;19918;-77
2022/09/04 13:11:42;;;;;;;;;;;;;;;29.27;35.47;99913.72;4969976;28;20390;-77
2022/09/04 13:14:37;;;;;;;;;;;;;;;29.28;36.49;99906.38;4970100;28;20412;-77
2022/09/04 13:17:22;;;;;;;;;;;;;;;29.75;35.65;99901.94;4965419;28;19918;-77
2022/09/04 13:20:07;;;;;;;;;;;;;;;30.30;34.91;99900.22;4969769;28;19929;-76
2022/09/04 13:22:45;;;;;;;;;;;;;;;30.80;33.79;99898.50;4968521;28;19914;-76
2022/09/04 13:25:28;;;;;;;;;;;;;;;31.06;33.36;99897.97;4969785;28;20421;-76
2022/09/04 13:28:01;;;;;;;;;;;;;;;31.28;32.83;99892.66;4968540;28;19918;-76
2022/09/04 13:30:28;;;;;;;;;;;;;;;31.40;32.64;99892.09;4969611;28;20420;-77